createdAt,value
2022-09-06T00:02:36.055Z,1.30
2022-09-06T00:05:23.088Z,1.42
2022-09-06T00:08:11.697Z,1.27
2022-09-06T00:11:01.268Z,1.20
2022-09-06T00:13:49.266Z,1.40
2022-09-06T00:16:36.351Z,1.30
2022-09-06T00:19:23.361Z,1.58
2022-09-06T00:22:10.629Z,1.13
2022-09-06T00:24:59.306Z,1.35
2022-09-06T00:27:46.702Z,1.10
2022-09-06T00:30:34.636Z,1.10
2022-09-06T00:33:21.851Z,1.30
2022-09-06T00:36:09.987Z,1.05
2022-09-06T00:38:57.443Z,1.20
2022-09-06T00:41:46.263Z,1.00
2022-09-06T00:44:33.301Z,1.33
2022-09-06T00:47:20.912Z,1.10
2022-09-06T00:50:10.376Z,0.93
2022-09-06T00:52:57.422Z,1.17
2022-09-06T00:55:44.758Z,1.10
2022-09-06T00:58:33.513Z,1.20
2022-09-06T01:06:21.421Z,1.23
2022-09-06T01:09:17.482Z,1.20
2022-09-06T01:12:17.168Z,1.10
2022-09-06T01:15:16.153Z,0.90
2022-09-06T01:18:15.046Z,1.30
2022-09-06T01:21:19.854Z,0.90
2022-09-06T01:24:37.066Z,1.00
2022-09-06T01:27:47.801Z,1.20
2022-09-06T01:30:40.475Z,1.20
2022-09-06T01:33:35.608Z,1.00
2022-09-06T01:36:28.136Z,1.00
2022-09-06T01:39:27.606Z,0.85
2022-09-06T01:42:18.607Z,0.98
2022-09-06T01:45:10.691Z,0.90
2022-09-06T01:48:10.474Z,1.10
2022-09-06T01:51:13.531Z,1.23
2022-09-06T01:54:19.966Z,1.63
2022-09-06T01:57:19.154Z,1.20
2022-09-06T02:00:10.587Z,0.88
2022-09-06T02:03:10.195Z,1.10
2022-09-06T02:06:03.901Z,1.10
2022-09-06T02:08:55.062Z,1.00
2022-09-06T02:11:48.853Z,1.08
2022-09-06T02:14:40.447Z,1.20
2022-09-06T02:17:33.294Z,1.10
2022-09-06T02:20:25.697Z,1.02
2022-09-06T02:23:13.607Z,0.90
2022-09-06T02:26:10.668Z,1.10
2022-09-06T02:28:58.409Z,1.17
2022-09-06T02:31:51.678Z,0.93
2022-09-06T02:34:42.519Z,1.10
2022-09-06T02:37:29.845Z,1.00
2022-09-06T02:40:17.207Z,0.82
2022-09-06T02:43:04.399Z,1.20
2022-09-06T02:45:51.819Z,1.05
2022-09-06T02:48:38.967Z,1.00
2022-09-06T02:51:27.446Z,1.00
2022-09-06T02:54:14.734Z,1.05
2022-09-06T02:57:10.887Z,1.20
2022-09-06T02:59:58.218Z,1.10
2022-09-06T03:07:57.197Z,1.00
2022-09-06T03:10:50.419Z,1.00
2022-09-06T03:13:37.671Z,1.30
2022-09-06T03:16:25.032Z,0.98
2022-09-06T03:23:40.982Z,1.30
2022-09-06T03:26:30.113Z,1.00
2022-09-06T03:29:17.587Z,1.00
2022-09-06T03:32:04.969Z,1.00
2022-09-06T03:34:52.092Z,0.90
2022-09-06T03:37:39.389Z,1.20
2022-09-06T03:41:17.010Z,1.33
2022-09-06T03:44:05.821Z,1.05
2022-09-06T03:46:52.894Z,1.60
2022-09-06T03:49:40.490Z,1.08
2022-09-06T03:52:27.425Z,1.35
2022-09-06T03:55:14.826Z,1.38
2022-09-06T03:58:02.209Z,1.23
2022-09-06T04:00:51.162Z,1.35
2022-09-06T04:03:39.564Z,1.38
2022-09-06T04:06:26.706Z,1.30
2022-09-06T04:09:14.769Z,1.40
2022-09-06T04:12:01.906Z,1.50
2022-09-06T04:14:49.315Z,1.30
2022-09-06T04:17:37.885Z,1.48
2022-09-06T04:20:25.058Z,1.27
2022-09-06T04:23:12.409Z,1.10
2022-09-06T04:26:00.411Z,1.33
2022-09-06T04:28:47.386Z,1.15
2022-09-06T04:31:34.642Z,2.35
2022-09-06T04:34:23.275Z,1.25
2022-09-06T04:37:11.479Z,1.42
2022-09-06T04:39:58.593Z,1.20
2022-09-06T04:42:45.781Z,1.20
2022-09-06T04:45:33.084Z,1.20
2022-09-06T04:48:20.382Z,1.50
2022-09-06T04:51:09.100Z,1.33
2022-09-06T04:53:56.244Z,1.20
2022-09-06T04:56:43.311Z,1.30
2022-09-06T04:59:30.331Z,1.20
2022-09-06T05:02:17.786Z,1.70
2022-09-06T05:05:05.766Z,1.13
2022-09-06T05:07:54.619Z,1.20
2022-09-06T05:10:41.562Z,1.30
2022-09-06T05:13:29.113Z,1.10
2022-09-06T05:16:16.965Z,1.00
2022-09-06T05:19:04.378Z,1.15
2022-09-06T05:21:52.232Z,1.42
2022-09-06T05:24:40.910Z,1.50
2022-09-06T05:27:28.298Z,1.15
2022-09-06T05:30:18.018Z,1.48
2022-09-06T05:33:05.230Z,1.08
2022-09-06T05:35:52.566Z,1.20
2022-09-06T05:38:39.760Z,1.23
2022-09-06T05:41:28.791Z,1.50
2022-09-06T05:44:15.932Z,1.02
2022-09-06T05:47:03.434Z,1.05
2022-09-06T05:49:50.811Z,1.08
2022-09-06T05:52:39.227Z,1.70
2022-09-06T05:55:26.738Z,1.20
2022-09-06T05:58:15.406Z,1.30
2022-09-06T06:01:14.816Z,1.10
2022-09-06T06:04:03.221Z,1.13
2022-09-06T06:06:50.525Z,1.08
2022-09-06T06:09:37.784Z,0.93
2022-09-06T06:12:24.737Z,1.20
2022-09-06T06:15:13.697Z,1.27
2022-09-06T06:18:00.889Z,1.27
2022-09-06T06:20:48.210Z,1.30
2022-09-06T06:23:35.665Z,1.00
2022-09-06T06:26:23.622Z,1.20
2022-09-06T06:29:10.802Z,1.10
2022-09-06T06:32:08.547Z,0.80
2022-09-06T06:34:55.657Z,1.17
2022-09-06T06:37:42.719Z,1.33
2022-09-06T06:40:30.749Z,1.20
2022-09-06T06:43:18.441Z,0.98
2022-09-06T06:46:06.329Z,1.00
2022-09-06T06:48:55.583Z,0.98
2022-09-06T06:51:42.881Z,1.10
2022-09-06T06:54:30.740Z,1.08
2022-09-06T06:57:17.641Z,1.05
2022-09-06T07:00:06.169Z,1.13
2022-09-06T07:02:53.421Z,1.27
2022-09-06T07:08:52.433Z,1.30
2022-09-06T07:11:39.762Z,1.50
2022-09-06T07:14:26.638Z,1.40
2022-09-06T07:17:13.778Z,1.30
2022-09-06T07:20:16.791Z,1.65
2022-09-06T07:26:18.599Z,1.25
2022-09-06T07:29:07.723Z,1.30
2022-09-06T07:32:13.030Z,1.40
2022-09-06T07:35:00.243Z,1.20
2022-09-06T07:37:53.539Z,1.25
2022-09-06T07:40:42.298Z,1.60
2022-09-06T07:43:30.102Z,1.50
2022-09-06T07:46:18.479Z,1.52
2022-09-06T07:49:06.690Z,1.20
2022-09-06T07:51:54.017Z,1.48
2022-09-06T07:54:41.408Z,1.83
2022-09-06T07:57:30.043Z,1.40
2022-09-06T08:00:17.566Z,1.63
2022-09-06T08:03:04.599Z,1.55
2022-09-06T08:11:44.013Z,1.63
2022-09-06T08:14:32.448Z,1.92
2022-09-06T08:17:20.084Z,1.75
2022-09-06T08:20:08.683Z,1.77
2022-09-06T08:22:55.759Z,1.73
2022-09-06T08:25:42.833Z,1.77
2022-09-06T08:28:30.343Z,1.75
2022-09-06T08:31:19.713Z,1.80
2022-09-06T08:34:06.937Z,1.90
2022-09-06T08:36:54.142Z,1.77
2022-09-06T08:39:41.619Z,1.63
2022-09-06T08:42:28.597Z,1.83
2022-09-06T08:45:19.989Z,1.88
2022-09-06T08:48:08.917Z,1.77
2022-09-06T08:51:18.463Z,1.70
2022-09-06T08:54:12.735Z,1.55
2022-09-06T08:57:10.406Z,1.70
2022-09-06T09:00:01.967Z,1.88
2022-09-06T09:02:52.161Z,1.90
2022-09-06T09:05:42.565Z,1.98
2022-09-06T09:08:33.749Z,2.35
2022-09-06T09:11:25.321Z,1.70
2022-09-06T09:14:19.664Z,1.60
2022-09-06T09:17:11.858Z,1.95
2022-09-06T09:19:59.061Z,2.00
2022-09-06T09:22:48.131Z,2.13
2022-09-06T09:25:36.417Z,1.83
2022-09-06T09:28:25.872Z,1.90
2022-09-06T09:31:14.184Z,2.20
2022-09-06T09:34:04.495Z,1.98
2022-09-06T09:40:29.879Z,2.03
2022-09-06T09:43:20.090Z,1.90
2022-09-06T09:46:17.754Z,2.10
2022-09-06T09:49:08.688Z,2.53
2022-09-06T09:52:07.214Z,2.30
2022-09-06T09:54:56.914Z,2.40
2022-09-06T09:57:48.841Z,1.90
2022-09-06T10:00:39.600Z,2.28
2022-09-06T10:03:31.366Z,2.33
2022-09-06T10:09:37.286Z,2.40
2022-09-06T10:12:30.153Z,2.30
2022-09-06T10:15:34.699Z,2.65
2022-09-06T10:18:31.675Z,2.40
2022-09-06T10:21:22.299Z,2.42
2022-09-06T10:24:32.475Z,2.55
2022-09-06T10:28:11.706Z,2.33
2022-09-06T10:31:10.645Z,2.22
2022-09-06T10:34:10.457Z,2.40
2022-09-06T10:37:10.567Z,2.45
2022-09-06T10:40:03.713Z,2.42
2022-09-06T10:42:53.867Z,2.30
2022-09-06T10:45:47.765Z,2.50
2022-09-06T10:48:42.123Z,2.30
2022-09-06T10:51:35.609Z,2.25
2022-09-06T10:54:24.321Z,2.20
2022-09-06T11:00:27.803Z,2.10
2022-09-06T11:06:36.114Z,2.50
2022-09-06T11:09:30.515Z,2.30
2022-09-06T11:12:28.299Z,2.50
2022-09-06T11:15:17.747Z,2.58
2022-09-06T11:18:10.718Z,2.28
2022-09-06T11:21:19.347Z,2.53
2022-09-06T11:24:13.678Z,2.63
2022-09-06T11:27:06.987Z,2.65
2022-09-06T11:35:25.801Z,2.35
2022-09-06T11:38:23.140Z,2.78
2022-09-06T11:47:02.976Z,2.78
2022-09-06T11:49:50.056Z,2.20
2022-09-06T11:53:12.793Z,2.78
2022-09-06T11:56:25.847Z,2.95
2022-09-06T11:59:28.335Z,3.00
2022-09-06T12:06:17.322Z,2.67
2022-09-06T12:09:31.466Z,3.10
2022-09-06T12:12:40.116Z,2.20
2022-09-06T12:15:29.334Z,2.83
2022-09-06T12:18:49.380Z,2.90
2022-09-06T12:21:47.588Z,2.30
2022-09-06T12:24:59.714Z,2.60
2022-09-06T12:27:58.154Z,2.83
2022-09-06T12:30:47.991Z,2.83
2022-09-06T12:33:38.771Z,2.72
2022-09-06T12:36:30.205Z,2.60
2022-09-06T12:39:17.457Z,3.13
2022-09-06T12:42:08.933Z,2.78
2022-09-06T12:44:57.180Z,2.33
2022-09-06T12:47:45.248Z,2.65
2022-09-06T12:50:32.664Z,2.65
2022-09-06T12:53:24.423Z,2.75
2022-09-06T12:56:13.576Z,2.47
2022-09-06T12:59:17.269Z,2.50
2022-09-06T13:02:08.000Z,3.13
2022-09-06T13:05:01.258Z,2.60
2022-09-06T13:07:51.963Z,2.85
2022-09-06T13:10:42.095Z,3.10
2022-09-06T13:13:29.560Z,3.05
2022-09-06T13:16:24.630Z,2.78
2022-09-06T13:19:13.652Z,3.00
2022-09-06T13:22:01.438Z,3.15
2022-09-06T13:24:49.099Z,3.00
2022-09-06T13:27:37.544Z,3.45
2022-09-06T13:30:33.542Z,3.00
2022-09-06T14:13:09.506Z,2.85
2022-09-06T14:15:57.424Z,2.95
2022-09-06T14:18:46.540Z,3.00
2022-09-06T14:21:35.047Z,2.90
2022-09-06T14:24:23.262Z,2.95
2022-09-06T14:31:13.070Z,2.70
2022-09-06T14:34:00.530Z,3.05
2022-09-06T14:36:47.506Z,2.90
2022-09-06T14:39:34.584Z,2.25
2022-09-06T14:43:36.026Z,2.70
2022-09-06T14:46:26.306Z,2.97
2022-09-06T14:49:13.603Z,3.00
2022-09-06T14:52:00.984Z,2.85
2022-09-06T14:54:48.350Z,2.65
2022-09-06T14:57:35.787Z,2.70
2022-09-06T15:00:23.541Z,3.17
2022-09-06T15:03:11.996Z,3.05
2022-09-06T15:05:59.082Z,2.80
2022-09-06T15:08:48.345Z,2.85
2022-09-06T15:11:37.855Z,2.75
2022-09-06T15:14:26.803Z,2.95
2022-09-06T15:17:14.127Z,3.05
2022-09-06T15:25:18.599Z,2.70
2022-09-06T15:28:06.064Z,3.00
2022-09-06T15:30:53.491Z,2.70
2022-09-06T15:33:41.658Z,2.53
2022-09-06T15:36:29.865Z,3.28
2022-09-06T15:39:17.109Z,3.10
2022-09-06T15:42:06.211Z,2.95
2022-09-06T15:44:53.551Z,3.00
2022-09-06T15:47:41.354Z,3.17
2022-09-06T15:50:49.806Z,2.90
2022-09-06T15:53:35.833Z,3.63
2022-09-06T15:56:23.204Z,3.08
2022-09-06T15:59:12.925Z,3.13
2022-09-06T16:02:00.182Z,2.80
2022-09-06T16:04:47.665Z,3.33
2022-09-06T16:12:49.995Z,2.85
2022-09-06T16:15:39.148Z,3.03
2022-09-06T16:18:26.958Z,3.20
2022-09-06T16:21:16.589Z,3.13
2022-09-06T16:24:05.540Z,2.88
2022-09-06T16:26:52.973Z,3.15
2022-09-06T16:29:40.499Z,3.08
2022-09-06T16:32:29.183Z,2.72
2022-09-06T16:35:16.352Z,3.40
2022-09-06T16:38:07.291Z,3.00
2022-09-06T16:40:56.215Z,3.05
2022-09-06T16:43:44.273Z,3.03
2022-09-06T16:46:31.675Z,2.95
2022-09-06T16:49:20.857Z,3.20
2022-09-06T16:52:08.322Z,2.60
2022-09-06T16:54:56.016Z,2.97
2022-09-06T16:57:43.273Z,2.85
2022-09-06T17:00:31.097Z,2.80
2022-09-06T17:03:18.552Z,2.88
2022-09-06T17:06:08.275Z,2.72
2022-09-06T17:08:58.387Z,2.90
2022-09-06T17:11:46.702Z,2.55
2022-09-06T17:14:34.281Z,2.50
2022-09-06T17:17:20.705Z,2.80
2022-09-06T17:20:09.760Z,2.60
2022-09-06T17:22:58.123Z,2.95
2022-09-06T17:25:45.233Z,2.47
2022-09-06T17:28:34.698Z,2.63
2022-09-06T17:31:25.711Z,2.80
2022-09-06T17:34:13.170Z,2.65
2022-09-06T17:37:00.466Z,2.42
2022-09-06T17:39:49.308Z,2.83
2022-09-06T17:42:37.055Z,2.60
2022-09-06T17:45:24.398Z,2.55
2022-09-06T17:48:11.895Z,2.63
2022-09-06T17:51:06.874Z,3.60
2022-09-06T17:53:54.109Z,2.80
2022-09-06T17:56:43.228Z,2.38
2022-09-06T17:59:35.049Z,2.78
2022-09-06T18:02:23.323Z,2.20
2022-09-06T18:05:11.022Z,2.45
2022-09-06T18:07:58.207Z,2.60
2022-09-06T18:10:45.769Z,2.88
2022-09-06T18:13:34.537Z,2.33
2022-09-06T18:16:21.782Z,2.80
2022-09-06T18:19:10.254Z,2.40
2022-09-06T18:21:57.679Z,2.30
2022-09-06T18:24:45.160Z,2.75
2022-09-06T18:27:34.230Z,2.47
2022-09-06T18:30:22.679Z,2.63
2022-09-06T18:33:13.427Z,2.30
2022-09-06T18:36:00.614Z,2.40
2022-09-06T18:38:48.260Z,2.70
2022-09-06T18:41:53.746Z,2.78
2022-09-06T18:44:40.877Z,2.20
2022-09-06T18:47:29.495Z,2.78
2022-09-06T18:50:17.149Z,2.60
2022-09-06T18:53:04.185Z,2.60
2022-09-06T18:55:53.100Z,2.60
2022-09-06T18:58:40.999Z,2.85
2022-09-06T19:01:30.269Z,2.47
2022-09-06T19:04:19.048Z,2.30
2022-09-06T19:07:06.439Z,2.17
2022-09-06T19:09:54.312Z,2.35
2022-09-06T19:12:41.629Z,2.50
2022-09-06T19:15:28.955Z,2.47
2022-09-06T19:18:16.192Z,2.15
2022-09-06T19:21:06.866Z,2.38
2022-09-06T19:23:57.321Z,2.35
2022-09-06T19:26:45.395Z,2.33
2022-09-06T19:29:32.347Z,2.25
2022-09-06T19:32:22.227Z,2.47
2022-09-06T19:35:10.461Z,3.22
2022-09-06T19:37:59.265Z,2.78
2022-09-06T19:40:46.774Z,2.25
2022-09-06T19:43:34.242Z,2.22
2022-09-06T19:46:22.693Z,2.92
2022-09-06T19:49:10.500Z,2.40
2022-09-06T19:51:57.672Z,2.60
2022-09-06T19:54:46.398Z,2.60
2022-09-06T19:57:34.061Z,2.40
2022-09-06T20:00:21.588Z,2.35
2022-09-06T20:03:09.089Z,2.65
2022-09-06T20:05:58.190Z,2.88
2022-09-06T20:08:49.916Z,2.47
2022-09-06T20:11:39.435Z,2.45
2022-09-06T20:14:26.945Z,2.45
2022-09-06T20:17:32.944Z,2.45
2022-09-06T20:20:21.338Z,2.67
2022-09-06T20:23:08.866Z,1.90
2022-09-06T20:26:00.795Z,2.38
2022-09-06T20:28:49.189Z,2.47
2022-09-06T20:31:37.655Z,2.40
2022-09-06T20:34:25.038Z,2.35
2022-09-06T20:37:12.331Z,2.50
2022-09-06T20:39:59.703Z,2.55
2022-09-06T20:42:47.019Z,1.90
2022-09-06T20:45:35.751Z,2.20
2022-09-06T20:48:23.464Z,2.30
2022-09-06T20:51:12.641Z,2.10
2022-09-06T20:54:01.388Z,1.90
2022-09-06T20:56:48.522Z,2.50
2022-09-06T20:59:35.859Z,2.22
2022-09-06T21:02:24.643Z,2.20
2022-09-06T21:05:11.834Z,2.28
2022-09-06T21:07:59.116Z,2.38
2022-09-06T21:10:46.922Z,2.35
2022-09-06T21:13:35.309Z,2.10
2022-09-06T21:16:24.916Z,2.10
2022-09-06T21:19:14.272Z,2.20
2022-09-06T21:22:01.128Z,2.22
2022-09-06T21:24:48.837Z,2.00
2022-09-06T21:27:37.754Z,1.75
2022-09-06T21:30:24.774Z,2.20
2022-09-06T21:33:12.147Z,1.80
2022-09-06T21:36:03.771Z,2.10
2022-09-06T21:38:54.184Z,1.92
2022-09-06T21:41:43.216Z,2.05
2022-09-06T21:44:30.333Z,2.20
2022-09-06T21:47:17.654Z,2.20
2022-09-06T21:50:05.293Z,2.22
2022-09-06T21:52:55.043Z,1.98
2022-09-06T21:55:42.515Z,2.08
2022-09-06T21:58:29.759Z,2.25
2022-09-06T22:01:16.970Z,2.00
2022-09-06T22:04:04.811Z,2.15
2022-09-06T22:06:52.270Z,1.80
2022-09-06T22:09:40.911Z,2.00
2022-09-06T22:12:28.259Z,1.80
2022-09-06T22:15:15.843Z,1.73
2022-09-06T22:18:02.952Z,1.90
2022-09-06T22:20:50.237Z,1.90
2022-09-06T22:23:38.247Z,1.90
2022-09-06T22:26:28.354Z,1.90
2022-09-06T22:29:16.595Z,1.77
2022-09-06T22:32:04.181Z,2.15
2022-09-06T22:34:51.659Z,2.00
2022-09-06T22:37:39.249Z,1.98
2022-09-06T22:40:26.765Z,1.63
2022-09-06T22:43:16.611Z,2.03
2022-09-06T22:46:05.662Z,2.08
2022-09-06T22:48:53.090Z,1.92
2022-09-06T22:51:40.501Z,1.95
2022-09-06T22:54:27.688Z,2.05
2022-09-06T22:57:14.725Z,2.03
2022-09-06T23:00:03.905Z,1.80
2022-09-06T23:02:51.134Z,2.20
2022-09-06T23:05:38.547Z,1.55
2022-09-06T23:08:25.963Z,1.83
2022-09-06T23:11:16.505Z,2.00
2022-09-06T23:14:04.917Z,2.17
2022-09-06T23:16:53.368Z,1.90
2022-09-06T23:19:40.574Z,2.22
2022-09-06T23:22:28.325Z,1.40
2022-09-06T23:25:15.655Z,1.63
2022-09-06T23:28:02.933Z,1.70
2022-09-06T23:30:50.074Z,1.92
2022-09-06T23:33:39.349Z,1.70
2022-09-06T23:36:27.769Z,1.90
2022-09-06T23:39:15.010Z,2.00
2022-09-06T23:42:02.297Z,1.90
2022-09-06T23:44:49.370Z,1.98
2022-09-06T23:47:36.757Z,1.95
2022-09-06T23:50:25.334Z,1.48
2022-09-06T23:53:14.855Z,1.70
2022-09-06T23:56:02.263Z,1.60
2022-09-06T23:58:49.555Z,1.67
